Airfield :
LOGIN :

Register | Disclaimer

   EN    FR    IT 

 










Legend :    VFR   Marginal VFR   IFR   Intensive IFR   Very Intensive IFR
Visi :
Ceiling :
>= 8 km
>= 3000ft
5 to 8 km
1000 to 3000 ft
1500m to 5 km
500 to 1000 ft
800 to 1500m
200 to 500 ft
< 800m
< 200 ft
Symbols :   Thunderstorms  Fog  Heavy snow  Heavy precipitations  Wind > 20 kt
SIGMETs :     Misc.  Thunderstorms  Icing  Turbulence  Mountain Waves  Volcanic Ashes






- Airport Elevation : 1000 ft
- IATA code : PEV


LHPP - Pécs Pogany

CURRENT METAR :
  • 250845Z AUTO 06010KT 030V100 CAVOK 24/14 Q1016

EXPIRED METARs :
  • 250815Z AUTO 07008KT 040V110 CAVOK 23/15 Q1016
  • 250745Z AUTO 08007KT 040V120 CAVOK 23/14 Q1016
  • 250715Z AUTO 08008KT 040V120 9999 SCT090 //////CB 22/14 Q1016
  • 250645Z AUTO 06009KT 020V100 CAVOK 21/13 Q1016
  • 250615Z AUTO 07009KT 040V100 CAVOK 21/14 Q1016
  • 250545Z AUTO 06008KT 030V090 CAVOK 20/14 Q1016
  • 250515Z AUTO 07007KT 020V110 CAVOK 19/14 Q1016
  • 250445Z AUTO 05010KT CAVOK 19/13 Q1015
  • 250415Z AUTO 04005KT CAVOK 18/14 Q1015

TAF TAF LHPP
Valid from the 25 at 09:00 until the 25 at 18:00 UTC


250815Z 2509/2518 08008KT CAVOK
TEMPO 2512/2518 VRB20G35KT 4500 SHRA TSRA SCT050CB BKN065



MET'MAP, your aeronautical weather chart ! - Copyright ORBIFLY December 2007 - Disclaimer

ORBIFLY MET'MAP TEAM :

Programming & Development : Alexandra Zaïnal
Original concept : Baudouin d'Aumeries
Technical & hardware support : Manuel Goepfert
Assistance : Marc-Olivier Méhu




SOURCES & CREDITS :

   NOAA